Time;durP1;ratioP1;P1;durP2;ratioP2;P2;SDS_P1;SDS_P2;PMS_P1;PMS_P2;Temp;Humidity;BMP_temperature;BMP_pressure;BME280_temperature;BME280_humidity;BME280_pressure;Samples;Min_cycle;Max_cycle;Signal;HPM_P1;HPM_P2
2023/05/27 00:02:36;;;;;;;6.80;3.60;;;;;;;9.34;47.18;102027.73;106190;1289;59341;-87
2023/05/27 00:05:22;;;;;;;16.80;4.40;;;;;;;9.31;47.23;102023.75;106157;1289;58940;-87
2023/05/27 00:08:08;;;;;;;15.20;4.40;;;;;;;9.28;47.39;102025.08;106285;1294;73291;-87
2023/05/27 00:10:54;;;;;;;9.70;4.40;;;;;;;9.28;47.46;102025.45;106276;1289;67590;-87
2023/05/27 00:13:40;;;;;;;10.80;3.90;;;;;;;9.25;47.52;102022.81;106155;1289;72518;-87
2023/05/27 00:16:27;;;;;;;13.40;4.10;;;;;;;9.21;47.57;102021.05;106105;1290;59100;-87
2023/05/27 00:19:13;;;;;;;11.90;3.70;;;;;;;9.21;47.63;102023.80;106178;1291;58783;-87
2023/05/27 00:21:59;;;;;;;11.20;4.00;;;;;;;9.17;47.49;102026.15;106246;1290;73025;-87
2023/05/27 00:24:45;;;;;;;9.50;3.60;;;;;;;9.09;47.55;102028.29;106185;1294;68612;-87
2023/05/27 00:27:31;;;;;;;14.50;3.50;;;;;;;9.06;47.61;102023.42;106178;1289;70728;-87
2023/05/27 00:30:17;;;;;;;9.90;3.50;;;;;;;9.02;47.68;102022.52;106215;1289;59334;-87
2023/05/27 00:33:03;;;;;;;10.60;4.40;;;;;;;8.97;47.70;102025.72;106301;1289;60515;-87
2023/05/27 00:35:49;;;;;;;10.60;3.60;;;;;;;8.95;47.79;102025.02;106146;1289;74545;-87
2023/05/27 00:38:36;;;;;;;12.10;3.50;;;;;;;8.88;47.75;102023.02;106178;1289;67433;-87
2023/05/27 00:41:22;;;;;;;;;;;;;;;8.81;47.85;102028.29;106187;1295;71501;-87
2023/05/27 00:44:08;;;;;;;5.20;3.20;;;;;;;8.74;47.92;102032.66;106171;1292;59093;-87
2023/05/27 00:46:54;;;;;;;10.90;3.80;;;;;;;8.68;48.02;102034.10;106054;1290;59345;-87
2023/05/27 00:49:40;;;;;;;13.70;4.00;;;;;;;8.67;48.05;102036.66;106074;1292;74211;-88
2023/05/27 00:52:27;;;;;;;6.70;3.80;;;;;;;8.62;48.07;102033.00;106163;1290;67404;-88
2023/05/27 00:55:13;;;;;;;;;;;;;;;8.58;48.11;102034.66;106178;1295;71215;-87
2023/05/27 00:57:59;;;;;;;10.40;3.50;;;;;;;8.53;48.26;102034.05;106294;1289;58900;-87
2023/05/27 01:00:45;;;;;;;;;;;;;;;8.47;48.30;102030.54;106172;1289;59032;-87
2023/05/27 01:03:33;;;;;;;8.00;3.60;;;;;;;8.46;48.40;102033.95;106217;1288;74358;-88
2023/05/27 01:06:50;;;;;;;10.80;3.90;;;;;;;8.43;48.36;102032.35;106259;1290;67798;-87
2023/05/27 01:09:41;;;;;;;10.30;4.10;;;;;;;8.33;48.42;102039.23;106108;1289;71221;-87
2023/05/27 01:12:35;;;;;;;11.90;4.40;;;;;;;8.22;48.60;102046.80;106264;1290;62747;-87
2023/05/27 01:15:22;;;;;;;7.30;3.80;;;;;;;8.18;48.50;102050.16;106139;1291;59059;-88
2023/05/27 01:18:09;;;;;;;9.90;3.80;;;;;;;8.15;48.64;102049.25;106123;1289;73382;-87
2023/05/27 01:21:01;;;;;;;13.70;4.60;;;;;;;8.14;48.70;102043.56;106104;1290;69652;-87
2023/05/27 01:23:48;;;;;;;9.00;3.90;;;;;;;8.11;48.72;102040.77;106159;1289;72634;-87
2023/05/27 01:26:34;;;;;;;13.90;4.30;;;;;;;8.12;48.81;102038.90;106082;1291;58804;-87
2023/05/27 01:29:21;;;;;;;12.30;4.90;;;;;;;8.12;48.89;102041.80;106149;1291;59097;-87
2023/05/27 01:32:52;;;;;;;10.60;4.20;;;;;;;8.07;49.00;102041.03;106182;1289;75137;-87
2023/05/27 01:35:53;;;;;;;8.60;4.30;;;;;;;8.03;49.00;102037.70;105663;1296;69878;-87
2023/05/27 01:38:43;;;;;;;14.00;3.90;;;;;;;7.97;49.11;102038.29;105578;1296;72329;-86
2023/05/27 01:41:30;;;;;;;16.30;5.80;;;;;;;7.92;49.17;102040.08;105607;1297;58456;-87
2023/05/27 01:44:18;;;;;;;13.30;4.80;;;;;;;7.95;49.21;102038.07;105565;1297;60605;-87
2023/05/27 01:47:04;;;;;;;11.80;4.40;;;;;;;7.98;49.26;102039.67;105360;1296;209103;-87
2023/05/27 01:49:50;;;;;;;8.90;4.00;;;;;;;7.96;49.29;102041.52;105658;1297;68327;-87
2023/05/27 01:52:36;;;;;;;12.10;5.10;;;;;;;7.95;49.25;102038.95;105552;1296;71367;-87
2023/05/27 01:55:22;;;;;;;6.60;4.30;;;;;;;7.93;49.23;102034.27;105608;1296;59612;-87
2023/05/27 01:58:08;;;;;;;10.10;4.60;;;;;;;7.90;49.35;102030.60;105560;1295;59829;-87
2023/05/27 02:00:54;;;;;;;9.10;4.50;;;;;;;7.86;49.27;102029.34;105582;1296;74036;-87
2023/05/27 02:03:40;;;;;;;10.30;4.00;;;;;;;7.82;49.25;102031.66;105499;1296;68782;-87
2023/05/27 02:06:26;;;;;;;7.60;4.20;;;;;;;7.75;49.29;102028.82;105539;1296;73328;-88
2023/05/27 02:09:13;;;;;;;13.70;4.70;;;;;;;7.71;49.48;102033.04;105537;1295;58995;-87
2023/05/27 02:11:59;;;;;;;13.40;4.80;;;;;;;7.66;49.48;102031.73;106004;1289;59037;-87
2023/05/27 02:14:45;;;;;;;7.20;4.20;;;;;;;7.62;49.51;102033.91;106052;1289;72870;-87
2023/05/27 02:17:31;;;;;;;11.20;4.70;;;;;;;7.59;49.55;102031.77;106015;1289;69701;-88
2023/05/27 02:20:17;;;;;;;12.70;5.20;;;;;;;7.57;49.64;102032.77;106129;1289;72587;-88
2023/05/27 02:23:06;;;;;;;13.40;5.40;;;;;;;7.55;49.63;102031.70;106196;1289;59402;-87
2023/05/27 02:25:52;;;;;;;13.40;4.50;;;;;;;7.48;49.79;102033.79;106179;1291;58965;-87
2023/05/27 02:28:38;;;;;;;9.80;5.00;;;;;;;7.48;49.73;102031.73;106244;1291;74616;-87
2023/05/27 02:31:24;;;;;;;9.60;5.00;;;;;;;7.48;49.64;102031.73;106158;1289;68364;-87
2023/05/27 02:34:10;;;;;;;9.50;4.40;;;;;;;7.42;49.55;102030.58;106121;1289;71896;-87
2023/05/27 02:36:56;;;;;;;9.70;4.60;;;;;;;7.32;49.80;102027.83;106188;1289;59343;-87
2023/05/27 02:39:42;;;;;;;7.20;4.60;;;;;;;7.32;49.87;102031.41;106186;1289;60671;-87
2023/05/27 02:42:28;;;;;;;10.50;5.00;;;;;;;7.33;49.93;102032.96;106175;1289;73372;-87
2023/05/27 02:45:14;;;;;;;14.10;5.10;;;;;;;7.31;50.10;102035.69;106217;1289;67199;-87
2023/05/27 02:48:01;;;;;;;;;;;;;;;7.29;49.97;102030.51;106122;1289;71806;-88
2023/05/27 02:50:47;;;;;;;;;;;;;;;7.19;49.96;102042.85;106161;1290;58997;-88
2023/05/27 02:53:33;;;;;;;12.80;4.50;;;;;;;7.13;50.03;102045.64;106121;1289;59704;-87
2023/05/27 02:56:19;;;;;;;16.50;5.00;;;;;;;7.11;50.15;102049.20;106260;1289;74573;-87
2023/05/27 02:59:05;;;;;;;;;;;;;;;7.08;50.09;102055.47;106090;1289;68677;-87
2023/05/27 03:01:51;;;;;;;;;;;;;;;7.03;50.22;102050.56;106090;1290;71445;-87
2023/05/27 03:04:38;;;;;;;12.80;5.20;;;;;;;6.97;50.31;102052.49;106188;1289;59340;-87
2023/05/27 03:07:24;;;;;;;13.30;5.30;;;;;;;6.88;50.38;102047.50;106132;1289;59972;-87
2023/05/27 03:10:10;;;;;;;12.50;6.00;;;;;;;6.91;50.37;102050.13;106205;1289;73262;-87
2023/05/27 03:12:56;;;;;;;9.40;4.60;;;;;;;6.95;50.47;102059.30;106148;1289;69235;-88
2023/05/27 03:15:42;;;;;;;12.60;6.00;;;;;;;7.02;50.58;102060.65;106141;1289;71749;-87
2023/05/27 03:18:28;;;;;;;11.00;4.80;;;;;;;7.08;50.47;102064.20;106180;1289;59257;-87
2023/05/27 03:21:14;;;;;;;14.00;5.20;;;;;;;7.07;50.72;102062.83;106068;1292;59833;-87
2023/05/27 03:24:00;;;;;;;8.80;4.80;;;;;;;7.05;50.68;102074.77;106118;1289;73176;-87
2023/05/27 03:26:46;;;;;;;16.40;5.20;;;;;;;7.05;50.87;102072.71;106225;1289;67414;-87
2023/05/27 03:29:33;;;;;;;9.40;5.20;;;;;;;7.09;50.86;102071.10;106048;1289;71484;-87
2023/05/27 03:32:19;;;;;;;12.70;5.20;;;;;;;7.14;50.83;102074.62;106152;1289;58923;-87
2023/05/27 03:35:05;;;;;;;9.60;5.30;;;;;;;7.18;50.76;102072.31;106066;1289;59066;-87
2023/05/27 03:37:51;;;;;;;13.30;5.10;;;;;;;7.20;50.85;102075.13;106200;1289;73341;-87
2023/05/27 03:40:37;;;;;;;8.80;4.40;;;;;;;7.23;50.83;102076.56;106221;1289;68538;-87
2023/05/27 03:43:23;;;;;;;8.50;4.60;;;;;;;7.28;51.00;102078.85;106013;1289;71385;-87
2023/05/27 03:46:09;;;;;;;9.40;4.80;;;;;;;7.31;51.03;102079.77;106119;1289;60363;-88
2023/05/27 03:48:55;;;;;;;9.40;6.00;;;;;;;7.34;51.03;102085.83;106070;1289;58996;-87
2023/05/27 03:51:41;;;;;;;12.30;5.20;;;;;;;7.36;51.15;102082.96;106034;1289;73065;-87
2023/05/27 03:54:27;;;;;;;12.80;5.30;;;;;;;7.43;51.26;102089.45;106066;1289;68416;-87
2023/05/27 03:57:13;;;;;;;10.70;5.90;;;;;;;7.51;51.25;102089.27;106111;1289;70500;-87
2023/05/27 03:59:59;;;;;;;11.60;5.20;;;;;;;7.57;51.25;102094.03;106277;1289;59251;-89
2023/05/27 04:02:45;;;;;;;9.20;5.20;;;;;;;7.61;51.35;102099.27;106098;1289;61226;-87
2023/05/27 04:05:31;;;;;;;12.00;5.20;;;;;;;7.69;51.39;102094.79;106281;1289;75263;-87
2023/05/27 04:08:17;;;;;;;10.10;5.20;;;;;;;7.79;51.52;102099.60;106111;1289;67707;-87
2023/05/27 04:11:03;;;;;;;8.60;4.90;;;;;;;7.90;51.55;102104.27;105996;1289;72916;-87
2023/05/27 04:13:49;;;;;;;15.00;5.20;;;;;;;8.03;51.60;102107.42;106116;1289;59738;-87
2023/05/27 04:16:36;;;;;;;9.50;5.00;;;;;;;8.13;51.67;102106.40;106068;1290;59161;-87
2023/05/27 04:19:22;;;;;;;9.60;4.90;;;;;;;8.17;51.78;102108.37;106095;1289;73368;-87
2023/05/27 04:22:08;;;;;;;14.50;5.40;;;;;;;8.21;51.77;102109.13;106189;1289;68726;-87
2023/05/27 04:24:54;;;;;;;9.80;4.90;;;;;;;8.30;51.91;102114.62;106132;1289;71389;-87
2023/05/27 04:27:40;;;;;;;13.10;5.30;;;;;;;8.39;51.93;102108.24;106152;1289;59026;-87
2023/05/27 04:30:26;;;;;;;12.40;4.80;;;;;;;8.50;52.04;102107.23;106242;1289;59004;-87
2023/05/27 04:33:14;;;;;;;15.20;5.50;;;;;;;8.60;52.09;102107.23;106069;1289;73033;-87
2023/05/27 04:36:02;;;;;;;12.60;5.00;;;;;;;8.69;52.16;102111.83;106169;1289;67506;-87
2023/05/27 04:38:48;;;;;;;14.70;5.10;;;;;;;8.80;52.23;102113.90;106044;1290;72501;-87
2023/05/27 04:41:34;;;;;;;10.80;4.70;;;;;;;8.89;52.42;102117.63;106105;1289;59139;-87
2023/05/27 04:44:20;;;;;;;17.10;6.00;;;;;;;9.01;52.50;102117.61;106301;1289;59126;-87
2023/05/27 04:47:06;;;;;;;8.60;4.90;;;;;;;9.14;52.57;102121.77;106144;1288;73421;-88
2023/05/27 04:51:04;;;;;;;;;;;;;;;;;;;;;
2023/05/27 04:54:28;;;;;;;;;;;;;;;;;;;;;
2023/05/27 04:58:13;;;;;;;;;;;;;;;;;;;;;
2023/05/27 05:02:09;;;;;;;11.90;4.70;;;;;;;9.95;53.09;102112.39;105667;1297;58904;-88
2023/05/27 05:05:36;;;;;;;10.20;4.90;;;;;;;10.20;53.17;102113.71;104931;1305;73606;-87
2023/05/27 05:08:23;;;;;;;15.90;5.00;;;;;;;10.61;53.31;102108.88;104881;1306;68358;-88
2023/05/27 05:11:10;;;;;;;19.50;6.30;;;;;;;11.17;53.29;102108.36;104847;1305;73032;-88
2023/05/27 05:13:56;;;;;;;13.10;5.70;;;;;;;11.81;53.24;102110.01;104741;1306;59027;-88
2023/05/27 05:16:42;;;;;;;12.70;5.20;;;;;;;12.51;53.15;102111.30;104768;1306;59265;-88
2023/05/27 05:19:28;;;;;;;11.00;6.20;;;;;;;13.18;52.88;102108.77;104795;1305;73490;-88
2023/05/27 05:22:14;;;;;;;11.40;5.60;;;;;;;13.83;52.69;102106.06;104717;1305;66595;-88
2023/05/27 05:25:00;;;;;;;14.60;5.10;;;;;;;14.46;52.67;102099.36;104678;1306;72052;-88
2023/05/27 05:27:47;;;;;;;14.00;5.00;;;;;;;15.10;52.54;102101.52;104763;1305;59135;-89
2023/05/27 05:30:33;;;;;;;10.60;4.80;;;;;;;15.67;52.22;102099.77;105095;1299;60220;-89
2023/05/27 05:33:19;;;;;;;12.50;5.30;;;;;;;16.16;52.15;102101.14;105342;1299;74732;-90
2023/05/27 05:36:05;;;;;;;10.60;4.10;;;;;;;16.65;51.83;102106.79;105247;1301;67895;-89
2023/05/27 05:38:51;;;;;;;15.10;4.90;;;;;;;17.15;51.70;102107.95;105663;1291;72130;-90
2023/05/27 05:41:37;;;;;;;8.80;4.00;;;;;;;17.65;51.45;102106.21;105954;1291;58965;-89
2023/05/27 05:44:25;;;;;;;13.30;4.70;;;;;;;18.12;51.24;102105.67;106144;1289;59069;-89
2023/05/27 05:47:11;;;;;;;14.40;5.40;;;;;;;18.47;50.98;102106.92;106115;1289;74164;-90
2023/05/27 05:49:58;;;;;;;13.10;4.80;;;;;;;18.86;50.78;102106.43;105977;1289;67386;-90
2023/05/27 05:52:44;;;;;;;12.30;4.40;;;;;;;19.20;50.88;102109.16;106039;1289;72540;-90
2023/05/27 05:55:31;;;;;;;8.70;3.70;;;;;;;19.61;50.59;102110.61;106144;1289;59002;-87
2023/05/27 05:58:18;;;;;;;12.50;4.50;;;;;;;19.96;50.38;102115.11;105962;1289;59571;-86
2023/05/27 06:01:05;;;;;;;11.20;3.80;;;;;;;20.23;50.04;102113.37;105975;1294;73391;-88
2023/05/27 06:03:51;;;;;;;12.70;4.50;;;;;;;20.55;49.95;102122.15;105967;1289;69233;-87
2023/05/27 06:06:39;;;;;;;12.20;4.20;;;;;;;20.76;49.54;102128.41;106041;1289;72348;-88
2023/05/27 06:09:26;;;;;;;12.00;4.00;;;;;;;20.94;49.33;102124.80;106133;1290;59392;-87
2023/05/27 06:12:16;;;;;;;9.80;3.60;;;;;;;21.26;49.42;102129.80;105968;1289;59113;-88
2023/05/27 06:15:03;;;;;;;;;;;;;;;21.66;48.89;102127.25;106075;1289;73174;-88
2023/05/27 06:17:49;;;;;;;;;;;;;;;22.01;48.66;102128.84;106121;1289;68370;-87
2023/05/27 06:20:36;;;;;;;10.10;4.50;;;;;;;22.42;48.54;102128.24;106003;1291;71690;-88
2023/05/27 06:23:23;;;;;;;13.40;3.50;;;;;;;22.94;48.24;102132.18;106021;1289;59088;-87
2023/05/27 06:26:15;;;;;;;12.10;3.50;;;;;;;23.20;47.25;102135.27;106126;1289;59376;-87
2023/05/27 06:29:02;;;;;;;13.60;3.70;;;;;;;23.31;47.62;102140.03;106134;1289;73280;-87
2023/05/27 06:31:48;;;;;;;8.20;3.00;;;;;;;23.72;47.33;102138.67;106034;1289;69457;-88
2023/05/27 06:34:46;;;;;;;8.20;3.40;;;;;;;24.21;47.12;102139.30;105976;1289;73718;-88
2023/05/27 06:37:33;;;;;;;10.10;3.70;;;;;;;24.81;46.70;102147.73;106017;1289;59579;-86
2023/05/27 06:40:19;;;;;;;9.60;3.20;;;;;;;25.11;46.00;102151.13;105979;1289;59134;-86
2023/05/27 06:43:05;;;;;;;14.10;3.40;;;;;;;25.34;46.42;102153.27;105882;1290;73390;-86
2023/05/27 06:45:52;;;;;;;10.90;3.80;;;;;;;25.57;46.43;102157.98;105810;1289;255144;-85
2023/05/27 06:48:38;;;;;;;11.20;3.50;;;;;;;25.61;45.53;102160.06;106074;1289;72330;-85
2023/05/27 06:51:25;;;;;;;10.30;3.30;;;;;;;25.86;44.87;102157.52;105897;1290;58968;-86
2023/05/27 06:54:20;;;;;;;9.30;4.00;;;;;;;26.14;44.41;102157.98;106031;1289;61088;-85
2023/05/27 06:57:06;;;;;;;10.50;3.60;;;;;;;26.50;43.68;102155.40;106014;1289;74702;-85
2023/05/27 06:59:52;;;;;;;9.90;3.90;;;;;;;27.20;43.52;102153.30;105949;1289;67752;-85
2023/05/27 07:02:38;;;;;;;8.60;3.90;;;;;;;27.93;42.94;102147.27;105963;1289;72558;-85
2023/05/27 07:05:24;;;;;;;12.60;6.40;;;;;;;28.66;42.58;102147.15;106012;1289;58654;-86
2023/05/27 07:08:10;;;;;;;20.60;10.90;;;;;;;29.53;42.50;102138.95;105936;1294;60295;-86
2023/05/27 07:10:57;;;;;;;11.80;4.90;;;;;;;30.13;41.66;102131.84;105978;1289;73190;-86
2023/05/27 07:13:43;;;;;;;8.20;3.70;;;;;;;30.13;39.93;102131.30;105998;1289;69291;-86
2023/05/27 07:16:29;;;;;;;7.30;3.70;;;;;;;29.48;41.08;102130.07;106001;1289;72268;-86
2023/05/27 07:19:15;;;;;;;7.50;3.30;;;;;;;29.59;41.30;102131.38;106028;1289;58985;-86
2023/05/27 07:22:02;;;;;;;6.00;3.30;;;;;;;30.42;40.43;102126.14;106015;1289;59926;-86
2023/05/27 07:24:48;;;;;;;8.30;3.40;;;;;;;30.47;39.45;102126.95;106176;1289;75254;-86
2023/05/27 07:27:34;;;;;;;8.80;3.30;;;;;;;29.70;39.09;102127.25;106036;1289;67438;-86
2023/05/27 07:30:21;;;;;;;6.60;2.60;;;;;;;29.69;39.19;102120.86;106032;1289;72301;-86
2023/05/27 07:33:07;;;;;;;6.90;2.90;;;;;;;30.04;37.89;102120.48;105951;1290;59030;-86
2023/05/27 07:35:53;;;;;;;3.70;2.20;;;;;;;29.49;37.87;102125.94;106005;1289;59119;-86
2023/05/27 07:38:39;;;;;;;;;;;;;;;29.18;37.78;102126.73;106068;1289;73466;-86
2023/05/27 07:41:26;;;;;;;5.10;2.40;;;;;;;29.24;37.54;102121.48;106134;1291;68648;-86
2023/05/27 07:44:12;;;;;;;5.20;2.50;;;;;;;30.68;36.80;102116.80;105999;1289;71314;-86
2023/05/27 07:46:58;;;;;;;4.30;2.20;;;;;;;32.17;35.43;102118.84;106079;1289;59021;-85
2023/05/27 07:49:44;;;;;;;9.70;2.20;;;;;;;32.66;33.81;102114.51;106007;1289;59017;-86
2023/05/27 07:52:30;;;;;;;7.20;2.60;;;;;;;33.38;34.72;102111.42;106057;1288;73271;-86
2023/05/27 07:55:16;;;;;;;2.70;1.90;;;;;;;34.37;33.98;102109.67;106088;1289;68166;-86
2023/05/27 07:58:02;;;;;;;12.80;2.90;;;;;;;35.28;33.49;102108.98;105968;1292;71433;-86
2023/05/27 08:00:48;;;;;;;3.70;2.50;;;;;;;35.83;32.70;102101.92;105990;1292;59087;-86
2023/05/27 08:03:35;;;;;;;4.30;2.50;;;;;;;36.46;32.70;102103.77;106040;1291;59486;-86
2023/05/27 08:06:21;;;;;;;2.70;2.20;;;;;;;37.21;32.13;102105.48;106096;1288;73317;-87
2023/05/27 08:09:07;;;;;;;2.90;1.80;;;;;;;37.97;31.85;102096.81;106038;1291;67453;-87
2023/05/27 08:11:53;;;;;;;2.60;2.30;;;;;;;38.76;31.42;102090.59;106084;1289;71477;-87
2023/05/27 08:14:40;;;;;;;2.00;1.80;;;;;;;39.40;30.62;102089.71;105983;1289;59102;-86
2023/05/27 08:17:26;;;;;;;2.30;2.10;;;;;;;39.76;29.92;102089.77;106101;1289;59236;-87
2023/05/27 08:20:12;;;;;;;3.10;1.80;;;;;;;40.20;29.44;102089.02;105977;1289;73400;-87
2023/05/27 08:22:58;;;;;;;2.60;1.90;;;;;;;40.75;28.84;102086.52;106177;1289;68103;-87
2023/05/27 08:25:44;;;;;;;2.40;2.10;;;;;;;41.28;28.24;102085.68;106076;1289;72593;-87
2023/05/27 08:28:34;;;;;;;3.50;2.30;;;;;;;41.32;27.04;102085.43;106149;1289;59027;-87
2023/05/27 08:31:20;;;;;;;2.60;2.40;;;;;;;41.12;26.81;102079.69;106013;1289;59405;-87
2023/05/27 08:34:06;;;;;;;3.20;2.90;;;;;;;41.18;26.18;102082.73;106082;1289;73495;-87
2023/05/27 08:36:52;;;;;;;2.70;2.50;;;;;;;40.94;25.49;102080.95;106041;1290;67536;-87
2023/05/27 08:39:38;;;;;;;3.20;2.70;;;;;;;40.72;24.95;102078.58;106138;1289;71395;-87
2023/05/27 08:42:50;;;;;;;3.80;2.40;;;;;;;40.57;24.09;102071.16;106094;1289;59324;-87
2023/05/27 08:45:40;;;;;;;4.00;2.50;;;;;;;40.45;24.04;102064.70;106201;1291;59176;-87
2023/05/27 08:48:26;;;;;;;3.00;2.50;;;;;;;40.27;22.60;102058.77;106183;1289;74495;-87
2023/05/27 08:51:13;;;;;;;2.50;2.30;;;;;;;39.55;22.46;102056.52;106107;1288;68136;-87
2023/05/27 08:53:59;;;;;;;3.00;2.30;;;;;;;38.70;22.35;102053.88;106050;1289;71534;-86
2023/05/27 08:56:47;;;;;;;4.80;2.70;;;;;;;36.40;21.85;102060.86;106037;1289;59062;-86
2023/05/27 08:59:34;;;;;;;2.50;1.90;;;;;;;33.77;21.93;102056.86;106169;1289;59090;-86
2023/05/27 09:02:21;;;;;;;2.70;1.80;;;;;;;31.77;21.83;102062.21;106068;1289;74525;-86
2023/05/27 09:05:11;;;;;;;2.10;1.60;;;;;;;30.28;21.83;102052.40;106214;1289;68579;-86
2023/05/27 09:07:57;;;;;;;3.00;1.60;;;;;;;29.03;21.67;102057.77;106026;1289;73301;-85
2023/05/27 09:10:43;;;;;;;;;;;;;;;27.81;21.74;102052.30;106061;1289;58871;-85
2023/05/27 09:13:30;;;;;;;3.40;1.90;;;;;;;26.83;21.57;102052.17;106080;1289;60096;-85
2023/05/27 09:16:20;;;;;;;6.70;2.40;;;;;;;25.77;21.76;102045.95;106061;1289;73335;-85
2023/05/27 09:19:15;;;;;;;2.50;1.70;;;;;;;24.85;21.70;102048.58;106053;1289;67222;-85
2023/05/27 09:22:01;;;;;;;4.60;1.40;;;;;;;24.18;21.76;102046.41;106123;1289;72404;-84
2023/05/27 09:24:47;;;;;;;6.10;1.30;;;;;;;23.76;21.81;102043.58;106079;1289;59038;-84
2023/05/27 09:27:34;;;;;;;6.10;1.60;;;;;;;23.37;21.77;102043.67;106126;1289;59024;-85
2023/05/27 09:30:21;;;;;;;3.10;0.80;;;;;;;23.00;21.76;102038.36;106131;1289;73242;-85
2023/05/27 09:33:08;;;;;;;2.30;0.90;;;;;;;22.64;21.78;102042.73;106057;1289;67283;-85
2023/05/27 09:35:54;;;;;;;2.90;1.20;;;;;;;22.16;21.76;102043.95;105995;1289;70197;-85
2023/05/27 09:38:41;;;;;;;4.50;1.10;;;;;;;21.66;22.00;102040.70;106047;1288;58981;-85
2023/05/27 09:41:27;;;;;;;2.90;1.20;;;;;;;21.39;22.11;102040.90;105969;1289;59089;-85
2023/05/27 09:44:13;;;;;;;8.20;1.40;;;;;;;21.13;22.36;102040.12;106005;1289;73384;-85
2023/05/27 09:47:02;;;;;;;2.50;1.20;;;;;;;21.00;22.44;102040.23;105938;1289;67354;-85
2023/05/27 09:49:50;;;;;;;2.00;1.10;;;;;;;20.79;22.44;102042.77;105984;1289;72507;-85
2023/05/27 09:52:39;;;;;;;3.40;1.30;;;;;;;20.60;22.94;102041.56;106085;1289;59100;-84
2023/05/27 09:55:25;;;;;;;4.30;1.10;;;;;;;20.46;22.80;102042.89;106022;1289;59983;-84
2023/05/27 09:58:12;;;;;;;;;;;;;;;20.30;22.98;102041.15;106019;1291;73405;-84
2023/05/27 10:01:28;;;;;;;3.60;1.20;;;;;;;20.22;23.31;102042.49;106062;1289;67743;-84
2023/05/27 10:04:17;;;;;;;2.80;1.30;;;;;;;20.15;23.12;102043.26;105473;1297;72464;-84
2023/05/27 10:07:04;;;;;;;2.90;1.20;;;;;;;20.11;23.29;102046.88;105584;1297;59000;-84
2023/05/27 10:09:50;;;;;;;2.90;1.20;;;;;;;20.11;23.32;102040.41;105378;1297;60237;-84
2023/05/27 10:13:00;;;;;;;;;;;;;;;20.14;23.48;102040.64;105517;1297;74746;-85
2023/05/27 10:15:53;;;;;;;6.10;1.50;;;;;;;20.07;23.67;102037.02;105585;1297;68655;-84
2023/05/27 10:18:42;;;;;;;4.40;1.50;;;;;;;19.92;23.77;102033.48;105443;1295;72200;-84
2023/05/27 10:21:31;;;;;;;2.80;1.30;;;;;;;19.84;24.06;102037.23;105479;1296;59041;-84
2023/05/27 10:24:17;;;;;;;3.60;1.40;;;;;;;19.79;24.22;102035.14;105409;1296;59083;-84
2023/05/27 10:27:05;;;;;;;4.20;1.40;;;;;;;19.78;24.28;102033.42;105403;1298;73374;-84
2023/05/27 10:29:58;;;;;;;3.20;1.30;;;;;;;19.76;24.31;102033.33;105273;1297;69040;-84
2023/05/27 10:32:48;;;;;;;2.10;1.30;;;;;;;19.77;24.42;102032.40;105310;1296;72595;-84
2023/05/27 10:35:42;;;;;;;1.90;1.00;;;;;;;19.74;24.43;102029.38;105381;1295;59118;-84
2023/05/27 10:38:30;;;;;;;6.30;1.40;;;;;;;19.68;24.56;102024.48;105278;1303;59714;-84
2023/05/27 10:41:16;;;;;;;2.40;1.00;;;;;;;19.69;24.77;102025.48;105415;1293;72818;-84
2023/05/27 10:44:02;;;;;;;2.60;1.20;;;;;;;19.67;24.73;102026.29;105497;1292;68771;-84
2023/05/27 10:46:49;;;;;;;;;;;;;;;19.55;24.84;102020.87;105658;1292;72366;-84
2023/05/27 10:49:37;;;;;;;5.00;1.30;;;;;;;19.46;25.06;102022.52;105812;1291;59340;-84
2023/05/27 10:52:26;;;;;;;3.20;1.30;;;;;;;19.45;25.40;102021.30;105716;1292;60129;-84
2023/05/27 10:55:13;;;;;;;3.40;1.40;;;;;;;19.52;25.48;102016.75;105719;1292;73480;-84
2023/05/27 10:58:00;;;;;;;8.40;2.20;;;;;;;19.60;25.75;102005.15;105730;1296;67546;-84
2023/05/27 11:00:49;;;;;;;;;;;;;;;19.67;25.62;102005.79;105805;1292;71279;-84
2023/05/27 11:03:42;;;;;;;5.60;1.50;;;;;;;19.70;25.72;102003.23;105691;1294;60110;-84
2023/05/27 11:06:29;;;;;;;4.50;1.30;;;;;;;19.75;25.59;102000.66;105701;1292;60226;-84
2023/05/27 11:09:15;;;;;;;7.90;1.50;;;;;;;19.77;25.89;102005.09;105832;1290;74193;-84
2023/05/27 11:12:05;;;;;;;4.20;1.30;;;;;;;19.80;25.84;102005.34;105981;1289;68547;-84
2023/05/27 11:14:53;;;;;;;4.00;1.20;;;;;;;19.79;25.91;101996.98;105967;1289;71360;-84
2023/05/27 11:17:39;;;;;;;1.60;1.00;;;;;;;19.73;26.20;101989.52;106041;1289;59781;-84
2023/05/27 11:20:34;;;;;;;4.40;1.60;;;;;;;19.75;26.20;101995.75;106006;1289;60220;-84
2023/05/27 11:23:21;;;;;;;3.40;1.40;;;;;;;19.75;26.20;101997.29;106057;1289;73970;-84
2023/05/27 11:26:17;;;;;;;6.60;1.50;;;;;;;19.75;26.53;101999.74;106029;1289;69576;-84
2023/05/27 11:29:04;;;;;;;3.70;1.50;;;;;;;19.74;26.53;101989.66;106046;1289;71399;-84
2023/05/27 11:31:50;;;;;;;3.20;1.30;;;;;;;19.75;26.48;101989.42;106062;1289;59090;-84
2023/05/27 11:34:36;;;;;;;2.20;1.40;;;;;;;19.76;26.63;101984.64;106097;1289;59984;-84
2023/05/27 11:37:22;;;;;;;8.20;4.30;;;;;;;19.81;26.82;101980.83;106058;1291;72409;-84
2023/05/27 11:40:13;;;;;;;4.40;1.60;;;;;;;19.86;26.67;101978.73;106176;1289;67214;-84
2023/05/27 11:43:02;;;;;;;2.70;1.50;;;;;;;19.85;26.81;101975.62;106063;1289;71319;-84
2023/05/27 11:45:48;;;;;;;6.30;1.50;;;;;;;19.76;26.94;101976.95;106167;1289;59048;-83
2023/05/27 11:48:35;;;;;;;3.50;1.30;;;;;;;19.68;27.04;101973.40;106100;1289;60217;-84
2023/05/27 11:51:28;;;;;;;5.60;1.50;;;;;;;19.60;26.93;101970.69;106066;1290;74780;-84
2023/05/27 11:54:23;;;;;;;2.60;1.30;;;;;;;19.50;27.16;101965.38;106051;1294;67426;-85
2023/05/27 11:57:10;;;;;;;5.30;1.80;;;;;;;19.43;27.49;101959.81;106047;1290;71739;-84
2023/05/27 11:59:57;;;;;;;2.80;1.60;;;;;;;19.42;27.47;101952.32;106050;1289;58926;-84
2023/05/27 12:02:44;;;;;;;3.50;1.10;;;;;;;19.44;27.58;101957.34;105924;1289;59535;-84
2023/05/27 12:05:29;;;;;;;6.80;1.60;;;;;;;19.50;27.60;101948.23;105940;1289;73279;-84
2023/05/27 12:08:16;;;;;;;2.50;1.40;;;;;;;19.50;27.61;101943.52;105964;1289;67534;-84
2023/05/27 12:11:02;;;;;;;3.00;1.40;;;;;;;19.50;27.78;101945.09;105937;1289;72647;-84
2023/05/27 12:13:48;;;;;;;2.90;1.60;;;;;;;19.58;27.84;101942.75;105988;1292;59485;-84
2023/05/27 12:16:35;;;;;;;2.10;1.10;;;;;;;19.64;27.60;101939.23;105966;1291;60139;-84
2023/05/27 12:19:21;;;;;;;3.10;1.30;;;;;;;19.64;27.97;101931.89;106000;1289;74061;-84
2023/05/27 12:22:07;;;;;;;3.80;1.60;;;;;;;19.64;28.02;101931.89;105843;1288;67909;-84
2023/05/27 12:24:54;;;;;;;4.30;1.30;;;;;;;19.71;28.14;101928.70;105928;1290;70957;-84
2023/05/27 12:27:40;;;;;;;5.90;1.40;;;;;;;19.76;28.22;101933.91;105748;1289;59507;-84
2023/05/27 12:30:27;;;;;;;2.40;1.50;;;;;;;19.74;28.22;101927.70;105756;1289;59457;-84
2023/05/27 12:33:13;;;;;;;3.80;1.50;;;;;;;19.73;28.18;101926.52;105865;1292;73278;-84
2023/05/27 12:36:00;;;;;;;3.10;1.70;;;;;;;19.77;28.37;101926.86;105806;1289;68890;-84
2023/05/27 12:38:46;;;;;;;6.20;3.70;;;;;;;19.80;28.27;101925.70;105894;1289;71768;-84
2023/05/27 12:41:32;;;;;;;4.60;1.90;;;;;;;19.86;28.27;101920.98;105766;1289;59282;-84
2023/05/27 12:44:18;;;;;;;4.00;1.60;;;;;;;19.87;28.27;101921.29;105750;1291;59161;-84
2023/05/27 12:47:04;;;;;;;2.10;1.40;;;;;;;19.89;28.41;101913.19;106052;1289;74276;-84
2023/05/27 12:49:51;;;;;;;4.50;1.60;;;;;;;19.88;28.28;101903.95;105985;1289;67382;-84
2023/05/27 12:52:37;;;;;;;3.40;1.70;;;;;;;19.87;28.44;101902.76;106152;1289;71369;-84
2023/05/27 12:55:24;;;;;;;4.00;1.20;;;;;;;19.86;28.36;101896.30;106128;1289;59480;-84
2023/05/27 12:58:10;;;;;;;4.70;1.60;;;;;;;19.86;28.54;101898.25;106065;1292;60219;-84
2023/05/27 13:00:56;;;;;;;2.60;1.10;;;;;;;19.84;28.65;101896.70;105958;1289;73350;-84
2023/05/27 13:03:42;;;;;;;3.00;1.40;;;;;;;19.87;28.51;101896.09;106018;1289;67211;-84